sensor_id;sensor_type;location;lat;lon;timestamp;temperature;humidity
65584;DHT22;70321;43.592;1.456;2023-06-26T00:02:09;22.50;72.82
65584;DHT22;70321;43.592;1.456;2023-06-26T00:04:34;22.51;73.47
65584;DHT22;70321;43.592;1.456;2023-06-26T00:07:01;22.50;73.33
65584;DHT22;70321;43.592;1.456;2023-06-26T00:09:26;22.47;73.75
65584;DHT22;70321;43.592;1.456;2023-06-26T00:11:51;22.48;73.85
65584;DHT22;70321;43.592;1.456;2023-06-26T00:14:17;22.47;73.83
65584;DHT22;70321;43.592;1.456;2023-06-26T00:16:48;22.43;73.34
65584;DHT22;70321;43.592;1.456;2023-06-26T00:19:15;22.37;73.79
65584;DHT22;70321;43.592;1.456;2023-06-26T00:21:41;22.33;73.54
65584;DHT22;70321;43.592;1.456;2023-06-26T00:24:12;22.33;74.00
65584;DHT22;70321;43.592;1.456;2023-06-26T00:26:37;22.33;73.53
65584;DHT22;70321;43.592;1.456;2023-06-26T00:29:03;22.27;73.74
65584;DHT22;70321;43.592;1.456;2023-06-26T00:31:28;22.29;73.89
65584;DHT22;70321;43.592;1.456;2023-06-26T00:33:53;22.29;74.12
65584;DHT22;70321;43.592;1.456;2023-06-26T00:36:22;22.27;73.72
65584;DHT22;70321;43.592;1.456;2023-06-26T00:38:51;22.25;74.08
65584;DHT22;70321;43.592;1.456;2023-06-26T00:41:17;22.27;74.36
65584;DHT22;70321;43.592;1.456;2023-06-26T00:43:43;22.25;74.12
65584;DHT22;70321;43.592;1.456;2023-06-26T00:46:10;22.32;74.20
65584;DHT22;70321;43.592;1.456;2023-06-26T00:48:36;22.25;74.53
65584;DHT22;70321;43.592;1.456;2023-06-26T00:51:02;22.25;74.66
65584;DHT22;70321;43.592;1.456;2023-06-26T00:53:27;22.23;74.39
65584;DHT22;70321;43.592;1.456;2023-06-26T00:55:53;22.21;74.47
65584;DHT22;70321;43.592;1.456;2023-06-26T00:58:21;22.24;74.32
65584;DHT22;70321;43.592;1.456;2023-06-26T01:00:48;22.24;74.54
65584;DHT22;70321;43.592;1.456;2023-06-26T01:03:14;22.29;74.55
65584;DHT22;70321;43.592;1.456;2023-06-26T01:05:40;22.30;74.63
65584;DHT22;70321;43.592;1.456;2023-06-26T01:08:05;22.27;74.64
65584;DHT22;70321;43.592;1.456;2023-06-26T01:10:31;22.27;74.91
65584;DHT22;70321;43.592;1.456;2023-06-26T01:12:57;22.23;74.82
65584;DHT22;70321;43.592;1.456;2023-06-26T01:15:22;22.27;75.03
65584;DHT22;70321;43.592;1.456;2023-06-26T01:17:49;22.27;75.29
65584;DHT22;70321;43.592;1.456;2023-06-26T01:20:15;22.27;75.59
65584;DHT22;70321;43.592;1.456;2023-06-26T01:27:49;22.23;76.01
65584;DHT22;70321;43.592;1.456;2023-06-26T01:30:16;22.24;76.70
65584;DHT22;70321;43.592;1.456;2023-06-26T01:32:43;22.20;76.74
65584;DHT22;70321;43.592;1.456;2023-06-26T01:35:09;22.20;76.64
65584;DHT22;70321;43.592;1.456;2023-06-26T01:37:36;22.16;76.95
65584;DHT22;70321;43.592;1.456;2023-06-26T01:40:01;22.16;76.99
65584;DHT22;70321;43.592;1.456;2023-06-26T01:42:27;22.18;76.89
65584;DHT22;70321;43.592;1.456;2023-06-26T01:44:56;22.16;77.09
65584;DHT22;70321;43.592;1.456;2023-06-26T01:47:25;22.16;77.22
65584;DHT22;70321;43.592;1.456;2023-06-26T01:49:59;22.14;77.48
65584;DHT22;70321;43.592;1.456;2023-06-26T01:52:42;22.14;77.24
65584;DHT22;70321;43.592;1.456;2023-06-26T01:55:30;22.10;77.60
65584;DHT22;70321;43.592;1.456;2023-06-26T01:57:59;22.13;77.70
65584;DHT22;70321;43.592;1.456;2023-06-26T02:00:25;22.18;77.85
65584;DHT22;70321;43.592;1.456;2023-06-26T02:02:52;22.16;77.42
65584;DHT22;70321;43.592;1.456;2023-06-26T02:05:17;22.13;77.70
65584;DHT22;70321;43.592;1.456;2023-06-26T02:07:43;22.14;77.96
65584;DHT22;70321;43.592;1.456;2023-06-26T02:10:09;22.16;77.84
65584;DHT22;70321;43.592;1.456;2023-06-26T02:12:36;22.14;77.86
65584;DHT22;70321;43.592;1.456;2023-06-26T02:15:02;22.14;77.96
65584;DHT22;70321;43.592;1.456;2023-06-26T02:17:28;22.14;78.03
65584;DHT22;70321;43.592;1.456;2023-06-26T02:19:53;22.14;77.96
65584;DHT22;70321;43.592;1.456;2023-06-26T02:22:19;22.12;78.13
65584;DHT22;70321;43.592;1.456;2023-06-26T02:24:45;22.12;78.33
65584;DHT22;70321;43.592;1.456;2023-06-26T02:27:10;22.14;78.54
65584;DHT22;70321;43.592;1.456;2023-06-26T02:29:36;22.09;78.35
65584;DHT22;70321;43.592;1.456;2023-06-26T02:32:01;22.09;78.39
65584;DHT22;70321;43.592;1.456;2023-06-26T02:34:27;22.07;78.61
65584;DHT22;70321;43.592;1.456;2023-06-26T02:36:53;22.04;78.77
65584;DHT22;70321;43.592;1.456;2023-06-26T02:39:22;22.03;78.69
65584;DHT22;70321;43.592;1.456;2023-06-26T02:41:47;22.06;79.05
65584;DHT22;70321;43.592;1.456;2023-06-26T02:44:13;22.00;78.95
65584;DHT22;70321;43.592;1.456;2023-06-26T02:46:39;21.96;79.11
65584;DHT22;70321;43.592;1.456;2023-06-26T02:49:05;21.96;79.22
65584;DHT22;70321;43.592;1.456;2023-06-26T02:51:32;21.93;79.22
65584;DHT22;70321;43.592;1.456;2023-06-26T02:53:58;21.92;79.38
65584;DHT22;70321;43.592;1.456;2023-06-26T02:56:23;21.88;79.63
65584;DHT22;70321;43.592;1.456;2023-06-26T02:58:49;21.88;79.85
65584;DHT22;70321;43.592;1.456;2023-06-26T03:01:14;21.89;79.76
65584;DHT22;70321;43.592;1.456;2023-06-26T03:03:41;21.89;79.78
65584;DHT22;70321;43.592;1.456;2023-06-26T03:06:07;21.86;79.82
65584;DHT22;70321;43.592;1.456;2023-06-26T03:08:34;21.93;79.78
65584;DHT22;70321;43.592;1.456;2023-06-26T03:11:00;21.93;79.81
65584;DHT22;70321;43.592;1.456;2023-06-26T03:13:25;21.94;79.64
65584;DHT22;70321;43.592;1.456;2023-06-26T03:15:51;21.93;79.46
65584;DHT22;70321;43.592;1.456;2023-06-26T03:18:16;21.92;79.73
65584;DHT22;70321;43.592;1.456;2023-06-26T03:20:41;21.93;79.75
65584;DHT22;70321;43.592;1.456;2023-06-26T03:23:07;21.89;79.58
65584;DHT22;70321;43.592;1.456;2023-06-26T03:25:32;21.89;79.58
65584;DHT22;70321;43.592;1.456;2023-06-26T03:27:57;21.89;79.74
65584;DHT22;70321;43.592;1.456;2023-06-26T03:30:23;21.90;79.93
65584;DHT22;70321;43.592;1.456;2023-06-26T03:32:48;21.89;79.77
65584;DHT22;70321;43.592;1.456;2023-06-26T03:35:14;21.88;80.00
65584;DHT22;70321;43.592;1.456;2023-06-26T03:37:40;21.90;79.75
65584;DHT22;70321;43.592;1.456;2023-06-26T03:40:05;21.85;79.83
65584;DHT22;70321;43.592;1.456;2023-06-26T03:42:32;21.85;79.80
65584;DHT22;70321;43.592;1.456;2023-06-26T03:44:57;21.85;79.85
65584;DHT22;70321;43.592;1.456;2023-06-26T03:47:22;21.85;79.96
65584;DHT22;70321;43.592;1.456;2023-06-26T03:49:48;21.85;79.86
65584;DHT22;70321;43.592;1.456;2023-06-26T03:52:13;21.79;79.96
65584;DHT22;70321;43.592;1.456;2023-06-26T03:54:39;21.76;80.09
65584;DHT22;70321;43.592;1.456;2023-06-26T03:57:04;21.78;80.07
65584;DHT22;70321;43.592;1.456;2023-06-26T03:59:30;21.73;80.04
65584;DHT22;70321;43.592;1.456;2023-06-26T04:01:55;21.76;80.23
65584;DHT22;70321;43.592;1.456;2023-06-26T04:04:21;21.76;80.09
65584;DHT22;70321;43.592;1.456;2023-06-26T04:06:47;21.79;79.93
65584;DHT22;70321;43.592;1.456;2023-06-26T04:09:12;21.80;80.13
65584;DHT22;70321;43.592;1.456;2023-06-26T04:11:38;21.80;80.28
65584;DHT22;70321;43.592;1.456;2023-06-26T04:14:03;21.80;80.29
65584;DHT22;70321;43.592;1.456;2023-06-26T04:16:28;21.73;80.28
65584;DHT22;70321;43.592;1.456;2023-06-26T04:18:54;21.72;80.53
65584;DHT22;70321;43.592;1.456;2023-06-26T04:21:21;21.67;80.72
65584;DHT22;70321;43.592;1.456;2023-06-26T04:23:50;21.65;80.66
65584;DHT22;70321;43.592;1.456;2023-06-26T04:26:16;21.63;80.63
65584;DHT22;70321;43.592;1.456;2023-06-26T04:28:42;21.62;80.63
65584;DHT22;70321;43.592;1.456;2023-06-26T04:31:07;21.63;80.64
65584;DHT22;70321;43.592;1.456;2023-06-26T04:33:34;21.60;79.99
65584;DHT22;70321;43.592;1.456;2023-06-26T04:36:01;21.55;80.18
65584;DHT22;70321;43.592;1.456;2023-06-26T04:38:28;21.52;80.11
65584;DHT22;70321;43.592;1.456;2023-06-26T04:40:54;21.52;80.18
65584;DHT22;70321;43.592;1.456;2023-06-26T04:43:19;21.53;80.31
65584;DHT22;70321;43.592;1.456;2023-06-26T04:45:44;21.58;80.33
65584;DHT22;70321;43.592;1.456;2023-06-26T04:48:10;21.58;80.34
65584;DHT22;70321;43.592;1.456;2023-06-26T04:50:35;21.56;80.46
65584;DHT22;70321;43.592;1.456;2023-06-26T04:53:01;21.50;80.03
65584;DHT22;70321;43.592;1.456;2023-06-26T04:55:27;21.52;80.04
65584;DHT22;70321;43.592;1.456;2023-06-26T04:57:53;21.52;80.46
65584;DHT22;70321;43.592;1.456;2023-06-26T05:00:19;21.56;80.67
65584;DHT22;70321;43.592;1.456;2023-06-26T05:02:45;21.58;80.84
65584;DHT22;70321;43.592;1.456;2023-06-26T05:05:10;21.56;81.08
65584;DHT22;70321;43.592;1.456;2023-06-26T05:07:37;21.62;81.44
65584;DHT22;70321;43.592;1.456;2023-06-26T05:10:03;21.60;81.53
65584;DHT22;70321;43.592;1.456;2023-06-26T05:12:28;21.62;81.55
65584;DHT22;70321;43.592;1.456;2023-06-26T05:14:54;21.65;81.66
65584;DHT22;70321;43.592;1.456;2023-06-26T05:17:19;21.72;81.71
65584;DHT22;70321;43.592;1.456;2023-06-26T05:19:44;21.76;81.44
65584;DHT22;70321;43.592;1.456;2023-06-26T05:22:10;21.82;81.40
65584;DHT22;70321;43.592;1.456;2023-06-26T05:24:37;21.88;81.43
65584;DHT22;70321;43.592;1.456;2023-06-26T05:27:03;21.88;81.40
65584;DHT22;70321;43.592;1.456;2023-06-26T05:29:31;21.90;81.45
65584;DHT22;70321;43.592;1.456;2023-06-26T05:31:57;21.94;81.29
65584;DHT22;70321;43.592;1.456;2023-06-26T05:34:23;21.89;80.91
65584;DHT22;70321;43.592;1.456;2023-06-26T05:36:52;21.82;80.65
65584;DHT22;70321;43.592;1.456;2023-06-26T05:39:19;21.80;80.73
65584;DHT22;70321;43.592;1.456;2023-06-26T05:41:45;21.76;80.77
65584;DHT22;70321;43.592;1.456;2023-06-26T05:44:10;21.75;80.22
65584;DHT22;70321;43.592;1.456;2023-06-26T05:46:36;21.75;80.25
65584;DHT22;70321;43.592;1.456;2023-06-26T05:49:01;21.76;80.45
65584;DHT22;70321;43.592;1.456;2023-06-26T05:51:27;21.78;80.05
65584;DHT22;70321;43.592;1.456;2023-06-26T05:53:53;21.76;80.12
65584;DHT22;70321;43.592;1.456;2023-06-26T05:56:19;21.78;79.66
65584;DHT22;70321;43.592;1.456;2023-06-26T05:58:45;21.72;79.60
65584;DHT22;70321;43.592;1.456;2023-06-26T06:01:11;21.73;79.85
65584;DHT22;70321;43.592;1.456;2023-06-26T06:03:36;21.78;80.03
65584;DHT22;70321;43.592;1.456;2023-06-26T06:06:03;21.76;79.72
65584;DHT22;70321;43.592;1.456;2023-06-26T06:08:28;21.76;79.37
65584;DHT22;70321;43.592;1.456;2023-06-26T06:10:53;21.78;79.53
65584;DHT22;70321;43.592;1.456;2023-06-26T06:13:19;21.75;79.61
65584;DHT22;70321;43.592;1.456;2023-06-26T06:15:44;21.79;79.77
65584;DHT22;70321;43.592;1.456;2023-06-26T06:18:10;21.78;79.60
65584;DHT22;70321;43.592;1.456;2023-06-26T06:20:35;21.79;79.45
65584;DHT22;70321;43.592;1.456;2023-06-26T06:23:01;21.86;79.32
65584;DHT22;70321;43.592;1.456;2023-06-26T06:25:26;21.86;79.57
65584;DHT22;70321;43.592;1.456;2023-06-26T06:27:52;21.90;79.58
65584;DHT22;70321;43.592;1.456;2023-06-26T06:30:17;21.92;79.27
65584;DHT22;70321;43.592;1.456;2023-06-26T06:32:43;21.94;79.29
65584;DHT22;70321;43.592;1.456;2023-06-26T06:35:08;21.97;79.20
65584;DHT22;70321;43.592;1.456;2023-06-26T06:37:38;22.00;78.80
65584;DHT22;70321;43.592;1.456;2023-06-26T06:40:05;22.04;79.04
65584;DHT22;70321;43.592;1.456;2023-06-26T06:42:31;22.03;78.91
65584;DHT22;70321;43.592;1.456;2023-06-26T06:44:57;22.04;78.78
65584;DHT22;70321;43.592;1.456;2023-06-26T06:47:23;22.06;79.06
65584;DHT22;70321;43.592;1.456;2023-06-26T06:49:48;22.03;79.07
65584;DHT22;70321;43.592;1.456;2023-06-26T06:52:13;22.04;78.91
65584;DHT22;70321;43.592;1.456;2023-06-26T06:54:55;22.06;79.11
65584;DHT22;70321;43.592;1.456;2023-06-26T06:57:24;22.02;78.88
65584;DHT22;70321;43.592;1.456;2023-06-26T06:59:49;22.00;78.81
65584;DHT22;70321;43.592;1.456;2023-06-26T07:02:17;22.00;78.93
65584;DHT22;70321;43.592;1.456;2023-06-26T07:04:43;21.94;78.41
65584;DHT22;70321;43.592;1.456;2023-06-26T07:07:08;21.93;78.51
65584;DHT22;70321;43.592;1.456;2023-06-26T07:09:35;21.93;78.89
65584;DHT22;70321;43.592;1.456;2023-06-26T07:12:00;21.93;78.50
65584;DHT22;70321;43.592;1.456;2023-06-26T07:14:25;21.88;78.59
65584;DHT22;70321;43.592;1.456;2023-06-26T07:16:51;21.92;78.63
65584;DHT22;70321;43.592;1.456;2023-06-26T07:19:16;21.93;78.56
65584;DHT22;70321;43.592;1.456;2023-06-26T07:21:42;21.99;78.50
65584;DHT22;70321;43.592;1.456;2023-06-26T07:24:09;21.94;77.84
65584;DHT22;70321;43.592;1.456;2023-06-26T07:26:35;21.96;78.16
65584;DHT22;70321;43.592;1.456;2023-06-26T07:29:00;22.00;78.33
65584;DHT22;70321;43.592;1.456;2023-06-26T07:31:25;22.02;78.03
65584;DHT22;70321;43.592;1.456;2023-06-26T07:33:51;22.04;78.03
65584;DHT22;70321;43.592;1.456;2023-06-26T07:36:16;22.03;78.27
65584;DHT22;70321;43.592;1.456;2023-06-26T07:38:42;22.02;77.70
65584;DHT22;70321;43.592;1.456;2023-06-26T07:41:07;22.04;77.82
65584;DHT22;70321;43.592;1.456;2023-06-26T07:43:32;22.04;77.84
65584;DHT22;70321;43.592;1.456;2023-06-26T07:45:58;22.10;78.28
65584;DHT22;70321;43.592;1.456;2023-06-26T07:48:26;22.14;77.73
65584;DHT22;70321;43.592;1.456;2023-06-26T07:50:51;22.17;77.94
65584;DHT22;70321;43.592;1.456;2023-06-26T07:53:17;22.24;77.90
65584;DHT22;70321;43.592;1.456;2023-06-26T07:55:42;22.27;77.87
65584;DHT22;70321;43.592;1.456;2023-06-26T07:58:08;22.32;77.76
65584;DHT22;70321;43.592;1.456;2023-06-26T08:00:35;22.37;77.88
65584;DHT22;70321;43.592;1.456;2023-06-26T08:03:00;22.41;77.70
65584;DHT22;70321;43.592;1.456;2023-06-26T08:05:25;22.44;77.48
65584;DHT22;70321;43.592;1.456;2023-06-26T08:07:51;22.48;77.19
65584;DHT22;70321;43.592;1.456;2023-06-26T08:10:16;22.51;77.17
65584;DHT22;70321;43.592;1.456;2023-06-26T08:12:42;22.48;76.37
65584;DHT22;70321;43.592;1.456;2023-06-26T08:15:10;22.54;76.92
65584;DHT22;70321;43.592;1.456;2023-06-26T08:17:37;22.54;76.33
65584;DHT22;70321;43.592;1.456;2023-06-26T08:20:03;22.54;76.61
65584;DHT22;70321;43.592;1.456;2023-06-26T08:22:28;22.57;76.77
65584;DHT22;70321;43.592;1.456;2023-06-26T08:24:54;22.55;76.26
65584;DHT22;70321;43.592;1.456;2023-06-26T08:27:19;22.60;76.20
65584;DHT22;70321;43.592;1.456;2023-06-26T08:29:45;22.61;75.97
65584;DHT22;70321;43.592;1.456;2023-06-26T08:32:10;22.61;76.33
65584;DHT22;70321;43.592;1.456;2023-06-26T08:34:36;22.61;76.12
65584;DHT22;70321;43.592;1.456;2023-06-26T08:37:01;22.63;75.81
65584;DHT22;70321;43.592;1.456;2023-06-26T08:39:26;22.64;75.69
65584;DHT22;70321;43.592;1.456;2023-06-26T08:41:52;22.68;76.17
65584;DHT22;70321;43.592;1.456;2023-06-26T08:44:17;22.65;75.99
65584;DHT22;70321;43.592;1.456;2023-06-26T08:46:43;22.64;76.19
65584;DHT22;70321;43.592;1.456;2023-06-26T08:49:20;22.65;75.62
65584;DHT22;70321;43.592;1.456;2023-06-26T08:52:10;22.65;75.68
65584;DHT22;70321;43.592;1.456;2023-06-26T08:54:43;22.72;75.59
65584;DHT22;70321;43.592;1.456;2023-06-26T08:57:10;22.79;76.05
65584;DHT22;70321;43.592;1.456;2023-06-26T08:59:36;22.85;75.17
65584;DHT22;70321;43.592;1.456;2023-06-26T09:02:02;22.92;75.29
65584;DHT22;70321;43.592;1.456;2023-06-26T09:04:28;23.04;75.32
65584;DHT22;70321;43.592;1.456;2023-06-26T09:06:53;23.08;74.73
65584;DHT22;70321;43.592;1.456;2023-06-26T09:09:19;23.11;74.43
65584;DHT22;70321;43.592;1.456;2023-06-26T09:11:45;23.11;74.22
65584;DHT22;70321;43.592;1.456;2023-06-26T09:14:11;23.14;73.63
65584;DHT22;70321;43.592;1.456;2023-06-26T09:16:41;23.12;72.98
65584;DHT22;70321;43.592;1.456;2023-06-26T09:19:11;23.18;73.35
65584;DHT22;70321;43.592;1.456;2023-06-26T09:21:41;23.25;73.53
65584;DHT22;70321;43.592;1.456;2023-06-26T09:24:07;23.29;72.99
65584;DHT22;70321;43.592;1.456;2023-06-26T09:26:37;23.29;71.67
65584;DHT22;70321;43.592;1.456;2023-06-26T09:29:03;23.32;71.30
65584;DHT22;70321;43.592;1.456;2023-06-26T09:31:29;23.26;71.23
65584;DHT22;70321;43.592;1.456;2023-06-26T09:33:59;23.23;71.89
65584;DHT22;70321;43.592;1.456;2023-06-26T09:36:29;23.25;72.41
65584;DHT22;70321;43.592;1.456;2023-06-26T09:39:00;23.20;71.80
65584;DHT22;70321;43.592;1.456;2023-06-26T09:41:26;23.16;72.27
65584;DHT22;70321;43.592;1.456;2023-06-26T09:43:52;23.04;71.14
65584;DHT22;70321;43.592;1.456;2023-06-26T09:46:24;23.01;71.98
65584;DHT22;70321;43.592;1.456;2023-06-26T09:49:01;22.99;72.16
65584;DHT22;70321;43.592;1.456;2023-06-26T09:51:29;23.01;71.66
65584;DHT22;70321;43.592;1.456;2023-06-26T09:53:55;22.99;71.60
65584;DHT22;70321;43.592;1.456;2023-06-26T09:56:20;22.99;71.54
65584;DHT22;70321;43.592;1.456;2023-06-26T09:58:47;22.94;71.25
65584;DHT22;70321;43.592;1.456;2023-06-26T10:01:13;22.91;71.29
65584;DHT22;70321;43.592;1.456;2023-06-26T10:03:38;22.87;71.61
65584;DHT22;70321;43.592;1.456;2023-06-26T10:06:04;22.87;72.06
65584;DHT22;70321;43.592;1.456;2023-06-26T10:08:31;22.87;72.28
65584;DHT22;70321;43.592;1.456;2023-06-26T10:10:58;22.85;72.16
65584;DHT22;70321;43.592;1.456;2023-06-26T10:13:30;22.85;72.23
65584;DHT22;70321;43.592;1.456;2023-06-26T10:15:58;22.83;72.32
65584;DHT22;70321;43.592;1.456;2023-06-26T10:18:24;22.85;72.22
65584;DHT22;70321;43.592;1.456;2023-06-26T10:20:53;22.79;72.68
65584;DHT22;70321;43.592;1.456;2023-06-26T10:23:22;22.84;72.79
65584;DHT22;70321;43.592;1.456;2023-06-26T10:25:48;22.84;72.70
65584;DHT22;70321;43.592;1.456;2023-06-26T10:28:16;22.87;72.61
65584;DHT22;70321;43.592;1.456;2023-06-26T10:30:43;22.87;72.78
65584;DHT22;70321;43.592;1.456;2023-06-26T10:33:11;22.88;73.04
65584;DHT22;70321;43.592;1.456;2023-06-26T10:35:42;22.91;73.35
65584;DHT22;70321;43.592;1.456;2023-06-26T10:38:08;22.97;73.40
65584;DHT22;70321;43.592;1.456;2023-06-26T10:40:47;23.01;73.35
65584;DHT22;70321;43.592;1.456;2023-06-26T10:43:17;23.02;73.28
65584;DHT22;70321;43.592;1.456;2023-06-26T10:45:45;23.04;72.89
65584;DHT22;70321;43.592;1.456;2023-06-26T10:48:14;23.04;72.69
65584;DHT22;70321;43.592;1.456;2023-06-26T10:50:39;23.04;73.13
65584;DHT22;70321;43.592;1.456;2023-06-26T10:55:41;23.02;73.10
65584;DHT22;70321;43.592;1.456;2023-06-26T10:58:40;23.04;72.65
65584;DHT22;70321;43.592;1.456;2023-06-26T11:03:45;23.08;72.43
65584;DHT22;70321;43.592;1.456;2023-06-26T11:06:12;23.12;72.89
65584;DHT22;70321;43.592;1.456;2023-06-26T11:11:12;23.09;73.13
65584;DHT22;70321;43.592;1.456;2023-06-26T11:13:39;23.09;73.11
65584;DHT22;70321;43.592;1.456;2023-06-26T11:16:05;23.07;73.53
65584;DHT22;70321;43.592;1.456;2023-06-26T11:18:31;23.02;73.30
65584;DHT22;70321;43.592;1.456;2023-06-26T11:21:17;22.99;73.21
65584;DHT22;70321;43.592;1.456;2023-06-26T11:23:46;22.99;73.34
65584;DHT22;70321;43.592;1.456;2023-06-26T11:26:14;22.97;73.88
65584;DHT22;70321;43.592;1.456;2023-06-26T11:28:55;23.01;73.26
65584;DHT22;70321;43.592;1.456;2023-06-26T11:31:27;23.01;73.42
65584;DHT22;70321;43.592;1.456;2023-06-26T11:33:54;23.01;72.42
65584;DHT22;70321;43.592;1.456;2023-06-26T11:36:19;22.99;73.29
65584;DHT22;70321;43.592;1.456;2023-06-26T11:39:01;23.05;73.98
65584;DHT22;70321;43.592;1.456;2023-06-26T11:41:29;23.09;73.44
65584;DHT22;70321;43.592;1.456;2023-06-26T11:43:55;23.15;73.19
65584;DHT22;70321;43.592;1.456;2023-06-26T11:46:22;23.20;73.03
65584;DHT22;70321;43.592;1.456;2023-06-26T11:48:48;23.26;72.38
65584;DHT22;70321;43.592;1.456;2023-06-26T11:51:14;23.29;73.05
65584;DHT22;70321;43.592;1.456;2023-06-26T11:53:44;23.23;71.71
65584;DHT22;70321;43.592;1.456;2023-06-26T11:56:11;23.25;71.60
65584;DHT22;70321;43.592;1.456;2023-06-26T11:59:05;23.23;71.65
65584;DHT22;70321;43.592;1.456;2023-06-26T12:01:38;23.23;71.51
65584;DHT22;70321;43.592;1.456;2023-06-26T12:04:09;23.19;71.34
65584;DHT22;70321;43.592;1.456;2023-06-26T12:06:36;23.19;71.23
65584;DHT22;70321;43.592;1.456;2023-06-26T12:09:04;23.18;71.08
65584;DHT22;70321;43.592;1.456;2023-06-26T12:11:31;23.19;71.26
65584;DHT22;70321;43.592;1.456;2023-06-26T12:13:57;23.25;72.48
65584;DHT22;70321;43.592;1.456;2023-06-26T12:16:23;23.28;71.11
65584;DHT22;70321;43.592;1.456;2023-06-26T12:18:49;23.33;71.25
65584;DHT22;70321;43.592;1.456;2023-06-26T12:24:09;23.46;71.62
65584;DHT22;70321;43.592;1.456;2023-06-26T12:26:36;23.53;71.48
65584;DHT22;70321;43.592;1.456;2023-06-26T12:29:06;23.55;71.78
65584;DHT22;70321;43.592;1.456;2023-06-26T12:31:32;23.59;71.37
65584;DHT22;70321;43.592;1.456;2023-06-26T12:33:58;23.62;71.23
65584;DHT22;70321;43.592;1.456;2023-06-26T12:36:23;23.63;71.02
65584;DHT22;70321;43.592;1.456;2023-06-26T12:38:49;23.65;71.15
65584;DHT22;70321;43.592;1.456;2023-06-26T12:41:15;23.69;70.19
65584;DHT22;70321;43.592;1.456;2023-06-26T12:43:42;23.69;70.72
65584;DHT22;70321;43.592;1.456;2023-06-26T12:46:08;23.79;71.48
65584;DHT22;70321;43.592;1.456;2023-06-26T12:48:38;23.84;71.87
65584;DHT22;70321;43.592;1.456;2023-06-26T12:51:12;23.86;70.51
65584;DHT22;70321;43.592;1.456;2023-06-26T12:53:38;23.90;70.43
65584;DHT22;70321;43.592;1.456;2023-06-26T12:56:07;23.94;70.49
65584;DHT22;70321;43.592;1.456;2023-06-26T12:58:34;23.90;68.41
65584;DHT22;70321;43.592;1.456;2023-06-26T13:00:59;23.96;69.77
65584;DHT22;70321;43.592;1.456;2023-06-26T13:03:25;24.03;69.51
65584;DHT22;70321;43.592;1.456;2023-06-26T13:05:50;24.04;69.27
65584;DHT22;70321;43.592;1.456;2023-06-26T13:08:16;24.12;69.00
65584;DHT22;70321;43.592;1.456;2023-06-26T13:10:44;24.13;69.27
65584;DHT22;70321;43.592;1.456;2023-06-26T13:13:11;24.16;68.85
65584;DHT22;70321;43.592;1.456;2023-06-26T13:15:36;24.16;67.90
65584;DHT22;70321;43.592;1.456;2023-06-26T13:18:02;24.17;67.58
65584;DHT22;70321;43.592;1.456;2023-06-26T13:20:27;24.23;68.16
65584;DHT22;70321;43.592;1.456;2023-06-26T13:22:53;24.28;68.58
65584;DHT22;70321;43.592;1.456;2023-06-26T13:25:20;24.37;68.61
65584;DHT22;70321;43.592;1.456;2023-06-26T13:27:45;24.43;68.00
65584;DHT22;70321;43.592;1.456;2023-06-26T13:30:11;24.48;68.11
65584;DHT22;70321;43.592;1.456;2023-06-26T13:32:36;24.54;67.70
65584;DHT22;70321;43.592;1.456;2023-06-26T13:35:02;24.54;66.75
65584;DHT22;70321;43.592;1.456;2023-06-26T13:37:28;24.54;67.33
65584;DHT22;70321;43.592;1.456;2023-06-26T13:39:54;24.60;67.60
65584;DHT22;70321;43.592;1.456;2023-06-26T13:42:19;24.68;67.98
65584;DHT22;70321;43.592;1.456;2023-06-26T13:44:44;24.68;66.03
65584;DHT22;70321;43.592;1.456;2023-06-26T13:47:12;24.74;66.74
65584;DHT22;70321;43.592;1.456;2023-06-26T13:49:38;24.78;66.51
65584;DHT22;70321;43.592;1.456;2023-06-26T13:52:05;24.79;66.40
65584;DHT22;70321;43.592;1.456;2023-06-26T13:54:37;24.81;66.15
65584;DHT22;70321;43.592;1.456;2023-06-26T13:57:05;24.82;65.42
65584;DHT22;70321;43.592;1.456;2023-06-26T13:59:31;24.77;65.00
65584;DHT22;70321;43.592;1.456;2023-06-26T14:01:56;24.79;66.02
65584;DHT22;70321;43.592;1.456;2023-06-26T14:04:22;24.82;65.41
65584;DHT22;70321;43.592;1.456;2023-06-26T14:06:47;24.87;66.20
65584;DHT22;70321;43.592;1.456;2023-06-26T14:09:13;24.87;64.87
65584;DHT22;70321;43.592;1.456;2023-06-26T14:11:38;24.91;65.20
65584;DHT22;70321;43.592;1.456;2023-06-26T14:14:04;24.94;64.75
65584;DHT22;70321;43.592;1.456;2023-06-26T14:16:29;24.96;65.67
65584;DHT22;70321;43.592;1.456;2023-06-26T14:18:55;24.96;64.90
65584;DHT22;70321;43.592;1.456;2023-06-26T14:21:20;24.98;65.13
65584;DHT22;70321;43.592;1.456;2023-06-26T14:23:46;24.99;65.12
65584;DHT22;70321;43.592;1.456;2023-06-26T14:26:12;25.02;65.19
65584;DHT22;70321;43.592;1.456;2023-06-26T14:28:38;24.98;64.93
65584;DHT22;70321;43.592;1.456;2023-06-26T14:31:04;25.01;65.15
65584;DHT22;70321;43.592;1.456;2023-06-26T14:33:30;24.96;65.43
65584;DHT22;70321;43.592;1.456;2023-06-26T14:35:56;24.94;64.52
65584;DHT22;70321;43.592;1.456;2023-06-26T14:38:21;24.96;65.46
65584;DHT22;70321;43.592;1.456;2023-06-26T14:40:47;25.01;65.56
65584;DHT22;70321;43.592;1.456;2023-06-26T14:43:12;25.02;65.63
65584;DHT22;70321;43.592;1.456;2023-06-26T14:45:37;25.05;64.98
65584;DHT22;70321;43.592;1.456;2023-06-26T14:48:03;25.05;64.12
65584;DHT22;70321;43.592;1.456;2023-06-26T14:50:28;24.98;63.58
65584;DHT22;70321;43.592;1.456;2023-06-26T14:52:54;25.04;64.34
65584;DHT22;70321;43.592;1.456;2023-06-26T14:55:19;25.04;64.10
65584;DHT22;70321;43.592;1.456;2023-06-26T14:57:45;25.09;64.84
65584;DHT22;70321;43.592;1.456;2023-06-26T15:00:10;25.07;63.81
65584;DHT22;70321;43.592;1.456;2023-06-26T15:02:36;25.11;62.93
65584;DHT22;70321;43.592;1.456;2023-06-26T15:05:02;25.09;63.73
65584;DHT22;70321;43.592;1.456;2023-06-26T15:07:27;25.12;64.85
65584;DHT22;70321;43.592;1.456;2023-06-26T15:09:53;25.15;64.40
65584;DHT22;70321;43.592;1.456;2023-06-26T15:12:18;25.14;64.70
65584;DHT22;70321;43.592;1.456;2023-06-26T15:14:43;25.09;64.96
65584;DHT22;70321;43.592;1.456;2023-06-26T15:17:09;25.14;63.69
65584;DHT22;70321;43.592;1.456;2023-06-26T15:19:34;25.09;65.03
65584;DHT22;70321;43.592;1.456;2023-06-26T15:22:00;25.09;64.41
65584;DHT22;70321;43.592;1.456;2023-06-26T15:24:26;25.11;64.54
65584;DHT22;70321;43.592;1.456;2023-06-26T15:26:51;25.15;65.54
65584;DHT22;70321;43.592;1.456;2023-06-26T15:29:17;25.16;64.37
65584;DHT22;70321;43.592;1.456;2023-06-26T15:31:43;25.21;65.04
65584;DHT22;70321;43.592;1.456;2023-06-26T15:34:09;25.28;65.24
65584;DHT22;70321;43.592;1.456;2023-06-26T15:36:34;25.28;64.78
65584;DHT22;70321;43.592;1.456;2023-06-26T15:39:00;25.31;63.78
65584;DHT22;70321;43.592;1.456;2023-06-26T15:41:25;25.28;64.69
65584;DHT22;70321;43.592;1.456;2023-06-26T15:43:51;25.29;63.76